createdAt,value
2019-02-24T00:01:49.684Z,13.87
2019-02-24T00:04:19.573Z,21.60
2019-02-24T00:06:48.364Z,12.80
2019-02-24T00:09:17.220Z,14.60
2019-02-24T00:11:46.085Z,13.47
2019-02-24T00:14:14.837Z,12.07
2019-02-24T00:16:43.645Z,12.23
2019-02-24T00:19:12.468Z,14.73
2019-02-24T00:21:41.291Z,13.70
2019-02-24T00:24:10.131Z,14.57
2019-02-24T00:26:39.027Z,13.50
2019-02-24T00:29:07.778Z,14.83
2019-02-24T00:31:36.550Z,14.03
2019-02-24T00:34:05.373Z,18.23
2019-02-24T00:36:34.188Z,19.53
2019-02-24T00:39:02.994Z,13.97
2019-02-24T00:41:31.799Z,16.20
2019-02-24T00:44:01.418Z,15.60
2019-02-24T00:46:30.259Z,12.87
2019-02-24T00:48:59.058Z,8.83
2019-02-24T00:51:27.837Z,18.23
2019-02-24T00:53:56.604Z,15.33
2019-02-24T00:56:25.412Z,11.57
2019-02-24T00:58:54.218Z,16.83
2019-02-24T01:01:23.004Z,12.80
2019-02-24T01:03:51.837Z,13.50
2019-02-24T01:06:20.598Z,13.70
2019-02-24T01:08:49.418Z,13.40
2019-02-24T01:11:18.253Z,16.80
2019-02-24T01:13:46.997Z,16.70
2019-02-24T01:16:15.755Z,15.60
2019-02-24T01:18:44.562Z,16.60
2019-02-24T01:21:13.397Z,12.20
2019-02-24T01:23:42.228Z,15.50
2019-02-24T01:26:11.053Z,13.67
2019-02-24T01:28:39.802Z,15.73
2019-02-24T01:31:08.555Z,10.20
2019-02-24T01:33:37.420Z,14.03
2019-02-24T01:36:06.244Z,16.13
2019-02-24T01:38:35.082Z,16.07
2019-02-24T01:41:03.938Z,12.80
2019-02-24T01:43:32.692Z,13.73
2019-02-24T01:46:02.435Z,8.67
2019-02-24T01:48:31.256Z,18.30
2019-02-24T01:51:00.083Z,11.27
2019-02-24T01:53:28.924Z,14.90
2019-02-24T01:55:57.748Z,20.67
2019-02-24T01:58:34.637Z,17.83
2019-02-24T02:00:57.050Z,14.90
2019-02-24T02:03:25.853Z,11.00
2019-02-24T02:05:54.612Z,14.73
2019-02-24T02:08:23.467Z,15.50
2019-02-24T02:10:52.346Z,11.60
2019-02-24T02:13:21.107Z,12.20
2019-02-24T02:15:49.900Z,12.83
2019-02-24T02:18:18.789Z,14.43
2019-02-24T02:20:47.601Z,9.40
2019-02-24T02:23:16.363Z,12.70
2019-02-24T02:25:45.174Z,10.33
2019-02-24T02:28:13.931Z,15.40
2019-02-24T02:30:42.758Z,11.80
2019-02-24T02:33:11.619Z,10.57
2019-02-24T02:35:40.388Z,13.87
2019-02-24T02:38:09.139Z,14.20
2019-02-24T02:40:37.965Z,11.90
2019-02-24T02:43:06.746Z,17.20
2019-02-24T02:45:35.499Z,14.60
2019-02-24T02:48:04.315Z,13.20
2019-02-24T02:50:33.050Z,13.93
2019-02-24T02:53:01.812Z,13.43
2019-02-24T02:55:30.684Z,12.30
2019-02-24T02:57:59.491Z,16.93
2019-02-24T03:00:34.132Z,15.70
2019-02-24T03:03:02.884Z,11.17
2019-02-24T03:05:31.812Z,15.33
2019-02-24T03:08:08.126Z,14.43
2019-02-24T03:10:36.869Z,11.40
2019-02-24T03:13:05.697Z,14.50
2019-02-24T03:15:34.597Z,13.20
2019-02-24T03:18:03.419Z,15.10
2019-02-24T03:20:32.163Z,13.93
2019-02-24T03:23:00.978Z,18.20
2019-02-24T03:25:29.723Z,15.40
2019-02-24T03:27:58.484Z,14.73
2019-02-24T03:30:27.366Z,15.40
2019-02-24T03:32:56.213Z,12.27
2019-02-24T03:35:24.969Z,15.07
2019-02-24T03:37:53.805Z,13.27
2019-02-24T03:40:22.572Z,8.93
2019-02-24T03:42:51.322Z,10.17
2019-02-24T03:45:20.227Z,15.80
2019-02-24T03:47:48.973Z,15.87
2019-02-24T03:50:17.814Z,13.67
2019-02-24T03:52:46.595Z,13.53
2019-02-24T03:55:15.380Z,13.37
2019-02-24T03:57:44.233Z,14.47
2019-02-24T04:00:13.045Z,13.70
2019-02-24T04:02:41.804Z,10.57
2019-02-24T04:05:10.627Z,14.17
2019-02-24T04:07:39.452Z,10.73
2019-02-24T04:10:08.270Z,11.30
2019-02-24T04:12:37.026Z,13.03
2019-02-24T04:15:06.524Z,12.87
2019-02-24T04:17:35.368Z,13.33
2019-02-24T04:20:04.446Z,18.93
2019-02-24T04:22:33.267Z,14.73
2019-02-24T04:25:02.099Z,16.17
2019-02-24T04:27:30.869Z,11.10
2019-02-24T04:29:59.771Z,14.10
2019-02-24T04:32:28.574Z,13.23
2019-02-24T04:34:57.394Z,9.97
2019-02-24T04:37:26.299Z,13.40
2019-02-24T04:39:55.051Z,13.63
2019-02-24T04:42:23.892Z,12.37
2019-02-24T04:44:52.723Z,16.77
2019-02-24T04:47:21.549Z,12.57
2019-02-24T04:49:50.326Z,15.17
2019-02-24T04:52:19.119Z,17.27
2019-02-24T04:54:47.858Z,11.03
2019-02-24T04:57:16.628Z,12.10
2019-02-24T04:59:45.444Z,15.00
2019-02-24T05:02:14.187Z,13.27
2019-02-24T05:04:42.946Z,11.27
2019-02-24T05:07:11.852Z,12.03
2019-02-24T05:09:40.699Z,12.50
2019-02-24T05:12:09.484Z,11.10
2019-02-24T05:14:38.274Z,18.60
2019-02-24T05:17:07.028Z,19.10
2019-02-24T05:19:35.859Z,12.33
2019-02-24T05:22:04.753Z,13.07
2019-02-24T05:24:33.489Z,11.30
2019-02-24T05:27:02.243Z,14.83
2019-02-24T05:29:31.174Z,15.57
2019-02-24T05:31:59.988Z,9.83
2019-02-24T05:34:28.746Z,16.67
2019-02-24T05:36:57.566Z,9.50
2019-02-24T05:39:26.316Z,15.53
2019-02-24T05:41:55.153Z,13.90
2019-02-24T05:44:24.022Z,17.43
2019-02-24T05:46:52.859Z,14.20
2019-02-24T05:49:21.619Z,14.53
2019-02-24T05:51:50.500Z,14.30
2019-02-24T05:54:19.310Z,13.23
2019-02-24T05:56:48.028Z,10.83
2019-02-24T05:59:16.853Z,16.00
2019-02-24T06:01:45.602Z,11.97
2019-02-24T06:04:14.373Z,11.77
2019-02-24T06:06:43.209Z,16.00
2019-02-24T06:09:12.020Z,12.13
2019-02-24T06:11:40.866Z,13.37
2019-02-24T06:14:09.677Z,18.87
2019-02-24T06:16:38.508Z,12.90
2019-02-24T06:19:07.356Z,16.07
2019-02-24T06:21:36.171Z,18.03
2019-02-24T06:24:04.940Z,10.90
2019-02-24T06:26:33.776Z,12.87
2019-02-24T06:29:02.651Z,10.00
2019-02-24T06:31:31.410Z,15.00
2019-02-24T06:34:00.164Z,12.47
2019-02-24T06:36:29.068Z,13.90
2019-02-24T06:38:57.836Z,11.40
2019-02-24T06:41:26.658Z,12.50
2019-02-24T06:43:55.512Z,14.33
2019-02-24T06:46:24.366Z,10.67
2019-02-24T06:48:53.134Z,11.13
2019-02-24T06:51:22.028Z,12.20
2019-02-24T06:53:50.877Z,15.80
2019-02-24T06:56:19.724Z,13.23
2019-02-24T06:58:48.528Z,10.93
2019-02-24T07:01:17.283Z,14.37
2019-02-24T07:03:46.106Z,13.70
2019-02-24T07:06:14.972Z,18.80
2019-02-24T07:08:43.758Z,16.70
2019-02-24T07:11:12.572Z,18.87
2019-02-24T07:13:41.402Z,14.07
2019-02-24T07:16:10.244Z,13.87
2019-02-24T07:18:39.116Z,18.57
2019-02-24T07:21:08.003Z,16.03
2019-02-24T07:23:36.778Z,13.17
2019-02-24T07:26:05.612Z,13.90
2019-02-24T07:28:34.516Z,11.83
2019-02-24T07:31:03.348Z,11.13
2019-02-24T07:33:32.195Z,13.50
2019-02-24T07:36:01.043Z,12.83
2019-02-24T07:38:29.812Z,14.03
2019-02-24T07:40:58.716Z,16.93
2019-02-24T07:43:27.628Z,15.23
2019-02-24T07:45:56.468Z,16.57
2019-02-24T07:48:25.220Z,17.27
2019-02-24T07:50:54.150Z,15.47
2019-02-24T07:53:23.011Z,19.67
2019-02-24T07:55:51.797Z,15.20
2019-02-24T07:58:20.764Z,17.77
2019-02-24T08:00:49.603Z,11.23
2019-02-24T08:03:18.377Z,14.27
2019-02-24T08:05:47.196Z,13.60
2019-02-24T08:08:16.635Z,18.47
2019-02-24T08:10:45.652Z,15.97
2019-02-24T08:13:14.522Z,17.43
2019-02-24T08:15:43.280Z,13.77
2019-02-24T08:18:12.055Z,13.23
2019-02-24T08:20:40.868Z,12.47
2019-02-24T08:23:10.989Z,15.87
2019-02-24T08:25:39.991Z,18.93
2019-02-24T08:28:08.868Z,17.43
2019-02-24T08:30:41.597Z,14.57
2019-02-24T08:33:08.204Z,17.13
2019-02-24T08:35:37.132Z,15.40
2019-02-24T08:38:05.939Z,13.47
2019-02-24T08:40:34.820Z,16.10
2019-02-24T08:43:03.682Z,13.73
2019-02-24T08:45:32.509Z,11.80
2019-02-24T08:48:01.332Z,15.73
2019-02-24T08:50:30.220Z,12.27
2019-02-24T08:52:59.035Z,16.53
2019-02-24T08:55:27.908Z,14.83
2019-02-24T08:57:56.804Z,11.73
2019-02-24T09:00:25.614Z,14.13
2019-02-24T09:02:54.436Z,17.63
2019-02-24T09:05:23.332Z,13.47
2019-02-24T09:07:52.150Z,11.80
2019-02-24T09:10:21.004Z,12.03
2019-02-24T09:12:49.898Z,15.97
2019-02-24T09:15:18.846Z,12.60
2019-02-24T09:17:48.014Z,11.50
2019-02-24T09:20:16.892Z,14.47
2019-02-24T09:22:47.181Z,15.80
2019-02-24T09:25:16.180Z,16.20
2019-02-24T09:27:45.060Z,15.00
2019-02-24T09:30:16.716Z,18.13
2019-02-24T09:32:45.644Z,16.67
2019-02-24T09:35:14.525Z,15.87
2019-02-24T09:37:43.276Z,13.40
2019-02-24T09:40:12.849Z,19.93
2019-02-24T09:42:41.725Z,15.30
2019-02-24T09:45:13.667Z,14.27
2019-02-24T09:47:46.702Z,15.20
2019-02-24T09:50:12.933Z,18.20
2019-02-24T09:52:41.757Z,18.43
2019-02-24T09:55:10.527Z,12.33
2019-02-24T09:57:39.436Z,15.77
2019-02-24T10:00:11.131Z,12.70
2019-02-24T10:02:39.956Z,12.43
2019-02-24T10:05:08.964Z,13.63
2019-02-24T10:07:37.749Z,18.97
2019-02-24T10:10:09.507Z,17.73
2019-02-24T10:12:38.307Z,16.53
2019-02-24T10:15:10.326Z,14.17
2019-02-24T10:17:39.092Z,17.33
2019-02-24T10:20:10.099Z,18.00
2019-02-24T10:22:38.908Z,13.97
2019-02-24T10:25:08.836Z,15.33
2019-02-24T10:27:37.743Z,17.73
2019-02-24T10:30:09.763Z,16.53
2019-02-24T10:32:38.621Z,16.03
2019-02-24T10:35:08.060Z,14.20
2019-02-24T10:37:36.932Z,15.27
2019-02-24T10:40:12.510Z,15.07
2019-02-24T10:42:41.551Z,17.57
2019-02-24T10:45:12.828Z,14.43
2019-02-24T10:47:41.644Z,14.17
2019-02-24T10:50:12.730Z,16.60
2019-02-24T10:52:41.575Z,15.00
2019-02-24T10:55:10.484Z,17.77
2019-02-24T10:57:39.396Z,21.70
2019-02-24T11:00:17.220Z,17.13
2019-02-24T11:02:46.026Z,15.03
2019-02-24T11:05:20.412Z,21.47
2019-02-24T11:07:49.285Z,18.43
2019-02-24T11:10:18.085Z,18.80
2019-02-24T11:12:46.844Z,17.90
2019-02-24T11:15:15.701Z,19.07
2019-02-24T11:17:44.588Z,17.20
2019-02-24T11:20:16.293Z,16.10
2019-02-24T11:22:45.106Z,15.63
2019-02-24T11:25:14.020Z,16.03
2019-02-24T11:27:42.870Z,14.00
2019-02-24T11:30:13.204Z,18.67
2019-02-24T11:32:42.104Z,20.03
2019-02-24T11:35:12.028Z,14.77
2019-02-24T11:37:40.861Z,12.93
2019-02-24T11:40:15.260Z,13.00
2019-02-24T11:42:44.091Z,14.43
2019-02-24T11:45:12.868Z,12.37
2019-02-24T11:47:41.753Z,16.33
2019-02-24T11:50:11.488Z,13.27
2019-02-24T11:52:40.317Z,15.17
2019-02-24T11:55:10.358Z,8.93
2019-02-24T11:57:39.182Z,11.40
2019-02-24T12:00:11.284Z,12.13
2019-02-24T12:02:41.705Z,12.37
2019-02-24T12:05:10.909Z,9.97
2019-02-24T12:07:39.692Z,10.73
2019-02-24T12:10:12.941Z,12.83
2019-02-24T12:12:41.803Z,10.13
2019-02-24T12:15:12.220Z,10.93
2019-02-24T12:17:41.054Z,8.07
2019-02-24T12:20:11.498Z,10.60
2019-02-24T12:22:40.373Z,11.33
2019-02-24T12:25:10.556Z,10.57
2019-02-24T12:27:39.486Z,12.90
2019-02-24T12:30:16.122Z,9.93
2019-02-24T12:32:44.894Z,9.13
2019-02-24T12:35:13.635Z,11.47
2019-02-24T12:37:42.524Z,7.60
2019-02-24T12:40:16.161Z,9.00
2019-02-24T12:42:45.012Z,8.90
2019-02-24T12:45:13.844Z,8.13
2019-02-24T12:47:42.679Z,9.70
2019-02-24T12:50:18.658Z,11.50
2019-02-24T12:52:47.396Z,15.43
2019-02-24T12:55:16.252Z,9.70
2019-02-24T12:57:45.152Z,11.43
2019-02-24T13:00:20.155Z,9.67
2019-02-24T13:02:49.063Z,8.43
2019-02-24T13:05:17.895Z,11.83
2019-02-24T13:07:46.654Z,10.27
2019-02-24T13:10:17.451Z,8.00
2019-02-24T13:12:46.188Z,8.93
2019-02-24T13:15:15.020Z,10.23
2019-02-24T13:17:43.852Z,10.17
2019-02-24T13:20:12.987Z,10.40
2019-02-24T13:22:41.823Z,11.57
2019-02-24T13:25:12.063Z,9.73
2019-02-24T13:27:40.892Z,10.93
2019-02-24T13:30:15.651Z,9.40
2019-02-24T13:32:44.486Z,9.53
2019-02-24T13:35:13.244Z,9.10
2019-02-24T13:37:41.989Z,9.60
2019-02-24T13:40:12.677Z,9.80
2019-02-24T13:42:41.517Z,9.17
2019-02-24T13:45:12.996Z,7.50
2019-02-24T13:47:43.954Z,9.00
2019-02-24T13:50:12.797Z,10.40
2019-02-24T13:52:41.565Z,11.63
2019-02-24T13:55:12.436Z,8.17
2019-02-24T13:57:41.282Z,14.97
2019-02-24T14:00:13.342Z,8.50
2019-02-24T14:02:42.252Z,7.83
2019-02-24T14:05:11.079Z,10.77
2019-02-24T14:07:39.931Z,8.13
2019-02-24T14:10:11.780Z,7.30
2019-02-24T14:12:40.537Z,7.80
2019-02-24T14:15:13.996Z,5.87
2019-02-24T14:17:42.810Z,12.93
2019-02-24T14:20:17.116Z,8.63
2019-02-24T14:22:45.942Z,10.50
2019-02-24T14:25:15.757Z,11.03
2019-02-24T14:27:44.493Z,7.50
2019-02-24T14:30:15.733Z,8.73
2019-02-24T14:32:44.682Z,8.90
2019-02-24T14:35:15.948Z,7.77
2019-02-24T14:37:44.803Z,9.30
2019-02-24T14:40:13.821Z,7.93
2019-02-24T14:42:42.667Z,8.27
2019-02-24T14:45:16.637Z,6.97
2019-02-24T14:47:45.507Z,7.80
2019-02-24T14:50:14.383Z,7.33
2019-02-24T14:52:43.230Z,8.83
2019-02-24T14:55:13.460Z,8.20
2019-02-24T14:57:42.276Z,8.07
2019-02-24T15:00:24.700Z,8.33
2019-02-24T15:02:53.498Z,13.50
2019-02-24T15:05:22.291Z,6.77
2019-02-24T15:07:51.204Z,10.93
2019-02-24T15:10:22.076Z,8.73
2019-02-24T15:12:50.949Z,10.33
2019-02-24T15:15:22.275Z,8.80
2019-02-24T15:17:51.108Z,8.03
2019-02-24T15:20:20.820Z,6.93
2019-02-24T15:22:49.725Z,9.03
2019-02-24T15:25:19.098Z,6.07
2019-02-24T15:27:48.044Z,6.90
2019-02-24T15:30:35.892Z,7.87
2019-02-24T15:33:04.719Z,8.63
2019-02-24T15:35:33.563Z,9.47
2019-02-24T15:38:02.423Z,9.00
2019-02-24T15:40:31.180Z,5.77
2019-02-24T15:42:59.950Z,8.40
2019-02-24T15:45:28.774Z,8.13
2019-02-24T15:47:57.601Z,7.03
2019-02-24T15:50:26.436Z,7.93
2019-02-24T15:52:55.364Z,11.83
2019-02-24T15:55:24.316Z,10.70
2019-02-24T15:57:57.172Z,8.53
2019-02-24T16:00:27.622Z,6.67
2019-02-24T16:03:01.409Z,7.47
2019-02-24T16:05:26.954Z,5.40
2019-02-24T16:07:55.845Z,6.33
2019-02-24T16:10:24.668Z,5.23
2019-02-24T16:12:53.532Z,7.37
2019-02-24T16:15:27.238Z,5.07
2019-02-24T16:17:56.083Z,6.17
2019-02-24T16:20:36.388Z,6.83
2019-02-24T16:23:05.163Z,7.60
2019-02-24T16:25:33.988Z,3.97
2019-02-24T16:28:02.899Z,7.10
2019-02-24T16:30:31.621Z,7.07
2019-02-24T16:33:00.452Z,9.30
2019-02-24T16:35:29.332Z,7.23
2019-02-24T16:37:58.187Z,8.43
2019-02-24T16:40:29.684Z,6.70
2019-02-24T16:42:58.492Z,6.17
2019-02-24T16:45:27.270Z,8.37
2019-02-24T16:48:24.890Z,6.60
2019-02-24T16:51:18.812Z,9.90
2019-02-24T16:53:48.463Z,6.67
2019-02-24T16:56:17.301Z,6.03
2019-02-24T16:58:46.138Z,7.57
2019-02-24T17:01:15.084Z,4.93
2019-02-24T17:03:43.948Z,5.67
2019-02-24T17:06:12.788Z,12.40
2019-02-24T17:08:41.634Z,7.70
2019-02-24T17:11:10.477Z,5.53
2019-02-24T17:13:39.293Z,7.73
2019-02-24T17:16:08.237Z,7.33
2019-02-24T17:18:37.163Z,5.37
2019-02-24T17:21:05.903Z,4.77
2019-02-24T17:23:34.812Z,5.40
2019-02-24T17:26:04.494Z,4.77
2019-02-24T17:28:33.429Z,5.83
2019-02-24T17:31:02.389Z,8.67
2019-02-24T17:33:32.662Z,5.27
2019-02-24T17:36:01.644Z,5.37
2019-02-24T17:38:30.468Z,4.17
2019-02-24T17:40:59.293Z,7.23
2019-02-24T17:43:28.133Z,5.50
2019-02-24T17:45:57.011Z,9.03
2019-02-24T17:48:25.869Z,5.80
2019-02-24T17:50:54.709Z,5.67
2019-02-24T17:53:23.612Z,7.93
2019-02-24T17:55:52.484Z,6.03
2019-02-24T17:58:21.212Z,6.07
2019-02-24T18:00:58.869Z,5.93
2019-02-24T18:03:27.717Z,7.83
2019-02-24T18:05:56.539Z,4.50
2019-02-24T18:08:28.227Z,10.73
2019-02-24T18:10:55.821Z,8.17
2019-02-24T18:13:24.672Z,4.73
2019-02-24T18:15:53.491Z,7.90
2019-02-24T18:18:22.341Z,6.30
2019-02-24T18:20:51.197Z,6.23
2019-02-24T18:23:20.055Z,10.73
2019-02-24T18:25:48.891Z,4.83
2019-02-24T18:28:17.725Z,6.67
2019-02-24T18:30:46.613Z,6.07
2019-02-24T18:33:15.429Z,4.60
2019-02-24T18:35:44.282Z,12.50
2019-02-24T18:38:13.165Z,5.70
2019-02-24T18:40:41.980Z,7.47
2019-02-24T18:43:10.805Z,8.50
2019-02-24T18:45:39.699Z,7.33
2019-02-24T18:48:08.549Z,6.33
2019-02-24T18:50:37.381Z,8.40
2019-02-24T18:53:06.516Z,7.20
2019-02-24T18:55:35.427Z,4.93
2019-02-24T18:58:04.347Z,8.97
2019-02-24T19:00:33.324Z,7.13
2019-02-24T19:03:02.070Z,9.37
2019-02-24T19:05:31.161Z,9.90
2019-02-24T19:08:00.067Z,10.43
2019-02-24T19:10:28.876Z,9.60
2019-02-24T19:12:57.710Z,6.53
2019-02-24T19:15:26.573Z,8.73
2019-02-24T19:17:55.427Z,9.10
2019-02-24T19:20:25.108Z,6.97
2019-02-24T19:22:54.012Z,6.60
2019-02-24T19:25:22.844Z,7.50
2019-02-24T19:27:51.690Z,6.03
2019-02-24T19:30:21.038Z,8.13
2019-02-24T19:32:49.875Z,6.13
2019-02-24T19:35:19.501Z,7.53
2019-02-24T19:37:48.556Z,6.93
2019-02-24T19:40:19.364Z,8.97
2019-02-24T19:42:48.236Z,8.17
2019-02-24T19:45:24.612Z,9.30
2019-02-24T19:47:53.435Z,9.07
2019-02-24T19:50:22.460Z,9.13
2019-02-24T19:52:51.382Z,8.63
2019-02-24T19:55:20.388Z,12.27
2019-02-24T19:57:49.235Z,8.33
2019-02-24T20:00:20.485Z,16.07
2019-02-24T20:02:49.241Z,10.47
2019-02-24T20:05:18.381Z,10.33
2019-02-24T20:07:47.778Z,9.67
2019-02-24T20:10:22.005Z,14.40
2019-02-24T20:12:50.892Z,14.20
2019-02-24T20:15:19.781Z,10.77
2019-02-24T20:17:48.612Z,14.93
2019-02-24T20:20:17.854Z,10.40
2019-02-24T20:22:47.508Z,10.13
2019-02-24T20:25:20.323Z,7.33
2019-02-24T20:27:49.093Z,7.93
2019-02-24T20:30:20.908Z,8.30
2019-02-24T20:32:49.660Z,9.23
2019-02-24T20:35:18.652Z,6.67
2019-02-24T20:37:47.557Z,9.70
2019-02-24T20:40:16.396Z,10.50
2019-02-24T20:42:45.227Z,11.17
2019-02-24T20:45:16.739Z,8.90
2019-02-24T20:47:45.603Z,5.60
2019-02-24T20:50:16.628Z,9.83
2019-02-24T20:52:45.614Z,9.37
2019-02-24T20:55:14.464Z,8.53
2019-02-24T20:57:43.396Z,9.40
2019-02-24T21:00:18.404Z,13.13
2019-02-24T21:02:47.235Z,9.43
2019-02-24T21:05:16.085Z,7.07
2019-02-24T21:07:44.972Z,13.47
2019-02-24T21:10:13.804Z,9.60
2019-02-24T21:12:42.639Z,10.00
2019-02-24T21:15:13.962Z,10.50
2019-02-24T21:17:42.920Z,8.43
2019-02-24T21:20:17.750Z,7.53
2019-02-24T21:22:46.646Z,9.03
2019-02-24T21:25:15.469Z,10.37
2019-02-24T21:27:44.309Z,10.07
2019-02-24T21:30:15.726Z,10.20
2019-02-24T21:32:44.485Z,8.17
2019-02-24T21:35:13.507Z,9.87
2019-02-24T21:38:01.682Z,9.77
2019-02-24T21:40:30.508Z,11.40
2019-02-24T21:42:59.351Z,11.77
2019-02-24T21:45:29.028Z,7.43
2019-02-24T21:47:57.874Z,9.20
2019-02-24T21:50:26.700Z,11.93
2019-02-24T21:52:55.616Z,10.87
2019-02-24T21:55:24.364Z,9.20
2019-02-24T21:57:53.218Z,10.07
2019-02-24T22:00:26.172Z,10.93
2019-02-24T22:02:55.019Z,7.60
2019-02-24T22:05:23.785Z,9.47
2019-02-24T22:07:52.610Z,9.73
2019-02-24T22:10:21.431Z,7.87
2019-02-24T22:12:50.187Z,13.47
2019-02-24T22:15:26.117Z,10.27
2019-02-24T22:17:54.946Z,9.90
2019-02-24T22:20:23.787Z,9.27
2019-02-24T22:22:52.667Z,8.67
2019-02-24T22:25:21.428Z,12.30
2019-02-24T22:27:50.266Z,13.33
2019-02-24T22:30:20.372Z,14.03
2019-02-24T22:32:49.180Z,11.87
2019-02-24T22:35:18.020Z,12.20
2019-02-24T22:37:46.866Z,13.93
2019-02-24T22:40:16.966Z,11.50
2019-02-24T22:42:46.221Z,13.40
2019-02-24T22:45:19.755Z,15.33
2019-02-24T22:47:48.662Z,11.93
2019-02-24T22:50:17.468Z,12.43
2019-02-24T22:52:46.640Z,10.63
2019-02-24T22:55:16.683Z,13.00
2019-02-24T22:57:45.435Z,11.97
2019-02-24T23:00:37.131Z,10.63
2019-02-24T23:03:05.961Z,10.00
2019-02-24T23:05:34.778Z,9.33
2019-02-24T23:08:03.651Z,11.93
2019-02-24T23:10:32.476Z,9.87
2019-02-24T23:13:01.292Z,13.50
2019-02-24T23:15:30.146Z,21.10
2019-02-24T23:17:58.900Z,14.70
2019-02-24T23:20:27.635Z,19.03
2019-02-24T23:22:56.523Z,12.20
2019-02-24T23:25:25.258Z,12.97
2019-02-24T23:27:54.021Z,11.37
2019-02-24T23:30:22.908Z,12.10
2019-02-24T23:32:51.724Z,11.53
2019-02-24T23:35:20.498Z,9.27
2019-02-24T23:37:49.339Z,11.60
2019-02-24T23:40:18.155Z,9.63
2019-02-24T23:42:46.931Z,10.70
2019-02-24T23:45:15.714Z,10.90
2019-02-24T23:47:44.532Z,11.13
2019-02-24T23:50:13.765Z,13.73
2019-02-24T23:52:42.683Z,12.03
2019-02-24T23:55:11.794Z,8.30
2019-02-24T23:57:40.543Z,9.33
